createdAt,value
2022-08-20T00:01:22.284Z,99.90
2022-08-20T00:03:53.308Z,99.90
2022-08-20T00:06:20.111Z,99.90
2022-08-20T00:08:46.681Z,99.90
2022-08-20T00:11:13.265Z,99.90
2022-08-20T00:13:40.103Z,99.90
2022-08-20T00:16:06.671Z,99.90
2022-08-20T00:18:33.231Z,99.90
2022-08-20T00:21:00.960Z,99.90
2022-08-20T00:23:27.560Z,99.90
2022-08-20T00:25:54.127Z,99.90
2022-08-20T00:28:20.761Z,99.90
2022-08-20T00:30:47.329Z,99.90
2022-08-20T00:33:13.906Z,99.90
2022-08-20T00:35:40.453Z,99.90
2022-08-20T00:38:07.024Z,99.90
2022-08-20T00:40:34.341Z,99.90
2022-08-20T00:43:00.979Z,99.90
2022-08-20T00:45:27.552Z,99.90
2022-08-20T00:47:57.365Z,99.90
2022-08-20T00:50:24.319Z,99.90
2022-08-20T00:52:50.872Z,99.90
2022-08-20T00:55:17.409Z,99.90
2022-08-20T00:57:59.163Z,99.90
2022-08-20T01:00:28.223Z,99.90
2022-08-20T01:02:55.041Z,99.90
2022-08-20T01:05:23.450Z,99.90
2022-08-20T01:07:56.357Z,99.90
2022-08-20T01:10:23.023Z,99.90
2022-08-20T01:12:49.556Z,99.90
2022-08-20T01:15:26.913Z,99.90
2022-08-20T01:18:00.893Z,99.90
2022-08-20T01:20:27.441Z,99.90
2022-08-20T01:23:12.989Z,99.90
2022-08-20T01:25:39.515Z,99.90
2022-08-20T01:28:06.079Z,99.90
2022-08-20T01:30:32.652Z,99.90
2022-08-20T01:32:59.191Z,99.90
2022-08-20T01:35:25.798Z,99.90
2022-08-20T01:37:52.379Z,99.90
2022-08-20T01:40:19.024Z,99.90
2022-08-20T01:42:52.806Z,99.90
2022-08-20T01:45:27.928Z,99.90
2022-08-20T01:47:55.804Z,99.90
2022-08-20T01:50:24.148Z,99.90
2022-08-20T01:52:50.715Z,99.90
2022-08-20T01:55:17.253Z,99.90
2022-08-20T01:57:43.848Z,99.90
2022-08-20T02:00:11.114Z,99.90
2022-08-20T02:02:46.869Z,99.90
2022-08-20T02:05:13.850Z,99.90
2022-08-20T02:07:40.409Z,99.90
2022-08-20T02:10:06.993Z,99.90
2022-08-20T02:12:33.569Z,99.90
2022-08-20T02:15:00.489Z,99.90
2022-08-20T02:17:27.460Z,99.90
2022-08-20T02:19:54.182Z,99.90
2022-08-20T02:22:20.779Z,99.90
2022-08-20T02:24:48.160Z,99.90
2022-08-20T02:27:14.736Z,99.90
2022-08-20T02:29:41.331Z,99.90
2022-08-20T02:32:24.736Z,99.90
2022-08-20T02:34:55.454Z,99.90
2022-08-20T02:37:22.049Z,99.90
2022-08-20T02:39:48.694Z,99.90
2022-08-20T02:42:15.236Z,99.90
2022-08-20T02:44:41.801Z,99.90
2022-08-20T02:47:08.387Z,99.90
2022-08-20T02:49:35.436Z,99.90
2022-08-20T02:52:01.981Z,99.90
2022-08-20T02:54:29.338Z,99.90
2022-08-20T02:56:55.936Z,99.90
2022-08-20T02:59:22.521Z,99.90
2022-08-20T03:01:58.112Z,99.90
2022-08-20T03:04:27.210Z,99.90
2022-08-20T03:06:53.931Z,99.90
2022-08-20T03:09:20.577Z,99.90
2022-08-20T03:11:47.112Z,99.90
2022-08-20T03:14:13.910Z,99.90
2022-08-20T03:16:40.452Z,99.90
2022-08-20T03:19:07.556Z,99.90
2022-08-20T03:21:37.206Z,99.90
2022-08-20T03:24:03.782Z,99.90
2022-08-20T03:26:30.377Z,99.90
2022-08-20T03:28:56.922Z,99.90
2022-08-20T03:31:23.462Z,99.90
2022-08-20T03:33:53.374Z,99.90
2022-08-20T03:36:26.662Z,99.90
2022-08-20T03:38:55.290Z,99.90
2022-08-20T03:41:21.842Z,99.90
2022-08-20T03:43:48.447Z,99.90
2022-08-20T03:46:23.580Z,99.90
2022-08-20T03:48:50.580Z,99.90
2022-08-20T03:51:25.650Z,99.90
2022-08-20T03:53:52.314Z,99.90
2022-08-20T03:56:19.291Z,99.90
2022-08-20T03:58:46.334Z,99.90
2022-08-20T04:01:44.675Z,99.90
2022-08-20T04:03:59.498Z,99.90
2022-08-20T04:06:26.445Z,99.90
2022-08-20T04:08:53.782Z,99.90
2022-08-20T04:11:20.356Z,99.90
2022-08-20T04:13:46.913Z,99.90
2022-08-20T04:16:16.221Z,99.90
2022-08-20T04:18:43.416Z,99.90
2022-08-20T04:21:31.562Z,99.90
2022-08-20T04:23:59.836Z,99.90
2022-08-20T04:26:26.829Z,99.90
2022-08-20T04:28:55.326Z,99.90
2022-08-20T04:31:25.292Z,99.90
2022-08-20T04:33:52.309Z,99.90
2022-08-20T04:36:18.857Z,99.90
2022-08-20T04:38:50.297Z,99.90
2022-08-20T04:41:23.102Z,99.90
2022-08-20T04:43:50.428Z,99.90
2022-08-20T04:46:17.080Z,99.90
2022-08-20T04:48:48.691Z,99.90
2022-08-20T04:51:16.685Z,99.90
2022-08-20T04:53:43.327Z,99.90
2022-08-20T04:56:09.944Z,99.90
2022-08-20T04:58:36.521Z,99.90
2022-08-20T05:01:03.889Z,99.90
2022-08-20T05:03:30.585Z,99.90
2022-08-20T05:05:57.385Z,99.90
2022-08-20T05:08:24.311Z,99.90
2022-08-20T05:10:50.866Z,99.90
2022-08-20T05:13:26.792Z,99.90
2022-08-20T05:15:54.526Z,99.90
2022-08-20T05:18:21.102Z,99.90
2022-08-20T05:20:47.761Z,99.90
2022-08-20T05:23:14.333Z,99.90
2022-08-20T05:25:40.905Z,99.90
2022-08-20T05:28:09.487Z,99.90
2022-08-20T05:30:36.250Z,99.90
2022-08-20T05:33:03.913Z,99.90
2022-08-20T05:35:30.554Z,99.90
2022-08-20T05:37:57.610Z,99.90
2022-08-20T05:40:24.683Z,99.90
2022-08-20T05:42:51.386Z,99.90
2022-08-20T05:45:18.140Z,99.90
2022-08-20T05:47:44.811Z,99.90
2022-08-20T05:50:19.795Z,99.90
2022-08-20T05:52:50.165Z,99.90
2022-08-20T05:55:16.711Z,99.90
2022-08-20T05:57:43.302Z,99.90
2022-08-20T06:00:09.862Z,99.90
2022-08-20T06:02:55.725Z,99.90
2022-08-20T06:05:22.572Z,99.90
2022-08-20T06:07:50.661Z,99.90
2022-08-20T06:10:20.168Z,99.90
2022-08-20T06:12:47.298Z,99.90
2022-08-20T06:15:13.847Z,99.90
2022-08-20T06:17:40.586Z,99.90
2022-08-20T06:20:09.058Z,99.90
2022-08-20T06:22:36.200Z,99.90
2022-08-20T06:25:02.800Z,99.90
2022-08-20T06:27:29.742Z,99.90
2022-08-20T06:29:56.576Z,99.90
2022-08-20T06:32:32.296Z,99.90
2022-08-20T06:35:02.006Z,99.90
2022-08-20T06:37:31.215Z,99.90
2022-08-20T06:39:58.387Z,99.90
2022-08-20T06:42:24.966Z,99.90
2022-08-20T06:44:51.505Z,99.90
2022-08-20T06:47:18.090Z,99.90
2022-08-20T06:49:44.871Z,99.90
2022-08-20T06:52:11.680Z,99.90
2022-08-20T06:54:38.280Z,99.90
2022-08-20T06:57:04.903Z,99.90
2022-08-20T06:59:31.550Z,99.90
2022-08-20T07:01:58.129Z,99.90
2022-08-20T07:04:25.722Z,99.90
2022-08-20T07:06:52.342Z,99.90
2022-08-20T07:09:18.882Z,99.90
2022-08-20T07:11:45.788Z,99.90
2022-08-20T07:14:12.407Z,99.90
2022-08-20T07:16:39.054Z,99.90
2022-08-20T07:19:05.588Z,99.90
2022-08-20T07:21:32.648Z,99.90
2022-08-20T07:23:59.190Z,99.90
2022-08-20T07:26:25.748Z,99.90
2022-08-20T07:28:52.407Z,99.90
2022-08-20T07:31:37.949Z,99.90
2022-08-20T07:34:04.587Z,99.90
2022-08-20T07:36:31.155Z,99.90
2022-08-20T07:38:57.794Z,99.90
2022-08-20T07:41:24.778Z,99.90
2022-08-20T07:43:51.549Z,99.90
2022-08-20T07:46:18.746Z,99.90
2022-08-20T07:48:49.544Z,99.90
2022-08-20T07:51:17.663Z,99.90
2022-08-20T07:53:44.260Z,99.90
2022-08-20T07:56:11.459Z,99.90
2022-08-20T07:58:38.205Z,99.90
2022-08-20T08:01:05.552Z,99.90
2022-08-20T08:03:40.587Z,99.90
2022-08-20T08:06:17.259Z,99.90
2022-08-20T08:08:55.432Z,99.90
2022-08-20T08:11:22.016Z,99.90
2022-08-20T08:13:48.642Z,99.90
2022-08-20T08:16:15.237Z,99.90
2022-08-20T08:18:41.794Z,99.90
2022-08-20T08:21:08.376Z,99.90
2022-08-20T08:23:34.961Z,99.90
2022-08-20T08:26:03.971Z,99.90
2022-08-20T08:28:30.905Z,99.90
2022-08-20T08:30:57.721Z,99.90
2022-08-20T08:33:33.620Z,99.90
2022-08-20T08:36:00.267Z,99.90
2022-08-20T08:38:27.206Z,99.90
2022-08-20T08:40:59.794Z,99.90
2022-08-20T08:43:27.243Z,99.90
2022-08-20T08:45:58.708Z,99.90
2022-08-20T08:48:25.702Z,99.90
2022-08-20T08:50:53.215Z,99.90
2022-08-20T08:53:20.338Z,99.90
2022-08-20T08:55:46.882Z,99.90
2022-08-20T08:58:16.615Z,99.90
2022-08-20T09:00:52.836Z,99.90
2022-08-20T09:03:24.435Z,99.90
2022-08-20T09:05:50.971Z,99.90
2022-08-20T09:08:18.550Z,99.90
2022-08-20T09:10:45.117Z,99.90
2022-08-20T09:13:11.661Z,99.90
2022-08-20T09:15:38.266Z,99.90
2022-08-20T09:18:04.834Z,99.90
2022-08-20T09:20:31.386Z,99.90
2022-08-20T09:22:58.121Z,99.90
2022-08-20T09:25:24.847Z,99.90
2022-08-20T09:27:51.453Z,99.90
2022-08-20T09:30:18.057Z,99.90
2022-08-20T09:32:45.193Z,99.90
2022-08-20T09:35:13.217Z,99.90
2022-08-20T09:37:39.751Z,99.90
2022-08-20T09:40:07.075Z,99.90
2022-08-20T09:42:36.344Z,99.90
2022-08-20T09:45:10.858Z,99.90
2022-08-20T09:47:38.234Z,99.90
2022-08-20T09:50:08.244Z,99.90
2022-08-20T09:52:40.658Z,99.90
2022-08-20T09:55:07.406Z,99.90
2022-08-20T09:57:33.974Z,99.90
2022-08-20T10:00:00.579Z,99.90
2022-08-20T10:02:27.204Z,99.90
2022-08-20T10:04:53.813Z,99.90
2022-08-20T10:07:20.419Z,99.90
2022-08-20T10:09:46.962Z,99.90
2022-08-20T10:12:13.554Z,99.90
2022-08-20T10:14:40.114Z,99.90
2022-08-20T10:17:06.699Z,99.90
2022-08-20T10:19:33.594Z,99.90
2022-08-20T10:22:00.217Z,99.90
2022-08-20T10:24:26.824Z,99.90
2022-08-20T10:26:53.421Z,99.90
2022-08-20T10:29:20.005Z,99.90
2022-08-20T10:31:46.612Z,99.90
2022-08-20T10:34:13.154Z,99.90
2022-08-20T10:36:39.716Z,99.90
2022-08-20T10:39:06.315Z,99.90
2022-08-20T10:41:36.103Z,99.90
2022-08-20T10:44:04.993Z,99.90
2022-08-20T10:46:31.653Z,99.90
2022-08-20T10:48:58.217Z,99.90
2022-08-20T10:51:32.368Z,99.90
2022-08-20T10:53:59.453Z,99.90
2022-08-20T10:56:26.019Z,99.90
2022-08-20T10:58:52.548Z,99.90
2022-08-20T11:01:32.678Z,99.90
2022-08-20T11:04:00.657Z,99.90
2022-08-20T11:06:27.649Z,99.90
2022-08-20T11:08:54.218Z,99.90
2022-08-20T11:11:23.685Z,99.90
2022-08-20T11:13:50.256Z,99.90
2022-08-20T11:16:16.842Z,99.90
2022-08-20T11:18:47.488Z,99.90
2022-08-20T11:21:14.277Z,99.90
2022-08-20T11:23:40.889Z,99.90
2022-08-20T11:26:07.491Z,99.90
2022-08-20T11:28:34.071Z,99.90
2022-08-20T11:31:00.774Z,99.90
2022-08-20T11:33:27.307Z,99.90
2022-08-20T11:35:53.870Z,99.90
2022-08-20T11:38:20.496Z,99.90
2022-08-20T11:40:47.295Z,99.90
2022-08-20T11:43:15.549Z,99.90
2022-08-20T11:45:43.097Z,99.90
2022-08-20T11:48:09.675Z,99.90
2022-08-20T11:50:36.251Z,99.90
2022-08-20T11:53:02.883Z,99.90
2022-08-20T11:55:30.220Z,99.90
2022-08-20T11:57:59.654Z,99.90
2022-08-20T12:00:30.409Z,99.90
2022-08-20T12:03:00.610Z,99.90
2022-08-20T12:05:30.120Z,99.90
2022-08-20T12:07:56.803Z,99.90
2022-08-20T12:10:24.446Z,99.90
2022-08-20T12:12:51.058Z,99.90
2022-08-20T12:15:17.613Z,99.90
2022-08-20T12:17:44.194Z,99.90
2022-08-20T12:20:10.836Z,99.90
2022-08-20T12:22:37.437Z,99.90
2022-08-20T12:25:03.950Z,99.90
2022-08-20T12:27:30.575Z,99.90
2022-08-20T12:29:57.165Z,99.90
2022-08-20T12:32:23.957Z,99.90
2022-08-20T12:34:50.508Z,99.90
2022-08-20T12:37:17.147Z,99.90
2022-08-20T12:39:43.745Z,99.90
2022-08-20T12:42:10.857Z,99.90
2022-08-20T12:44:37.487Z,99.90
2022-08-20T12:47:04.041Z,99.90
2022-08-20T12:49:30.582Z,99.90
2022-08-20T12:51:57.151Z,99.90
2022-08-20T12:54:23.776Z,99.30
2022-08-20T12:56:51.960Z,99.30
2022-08-20T12:59:19.226Z,99.90
2022-08-20T13:01:47.689Z,99.90
2022-08-20T13:04:14.399Z,98.70
2022-08-20T13:06:40.997Z,99.20
2022-08-20T13:09:07.631Z,99.00
2022-08-20T13:11:34.279Z,98.60
2022-08-20T13:14:00.825Z,97.00
2022-08-20T13:16:27.449Z,97.10
2022-08-20T13:18:54.117Z,96.80
2022-08-20T13:21:23.914Z,95.70
2022-08-20T13:23:51.141Z,97.20
2022-08-20T13:26:17.738Z,96.80
2022-08-20T13:28:44.284Z,96.40
2022-08-20T13:31:11.125Z,96.30
2022-08-20T13:33:37.783Z,95.50
2022-08-20T13:36:04.362Z,95.50
2022-08-20T13:38:31.328Z,95.90
2022-08-20T13:40:58.025Z,94.70
2022-08-20T13:43:24.683Z,95.20
2022-08-20T13:45:51.257Z,95.40
2022-08-20T13:48:17.890Z,95.20
2022-08-20T13:50:47.273Z,95.70
2022-08-20T13:53:14.139Z,95.00
2022-08-20T13:55:43.258Z,95.70
2022-08-20T13:58:09.820Z,95.90
2022-08-20T14:00:36.497Z,96.20
2022-08-20T14:03:03.056Z,95.70
2022-08-20T14:05:29.628Z,95.60
2022-08-20T14:07:56.221Z,95.70
2022-08-20T14:10:24.202Z,95.20
2022-08-20T14:12:51.582Z,94.40
2022-08-20T14:15:20.139Z,93.90
2022-08-20T14:17:47.003Z,94.20
2022-08-20T14:20:17.842Z,93.10
2022-08-20T14:26:21.899Z,93.50
2022-08-20T14:28:48.418Z,93.80
2022-08-20T14:31:15.019Z,94.10
2022-08-20T14:33:44.677Z,93.70
2022-08-20T14:36:11.494Z,94.30
2022-08-20T14:38:41.377Z,94.20
2022-08-20T14:41:07.934Z,94.50
2022-08-20T14:43:34.540Z,94.10
2022-08-20T14:46:01.157Z,93.50
2022-08-20T14:48:28.238Z,93.50
2022-08-20T14:50:55.845Z,92.90
2022-08-20T14:53:22.368Z,92.40
2022-08-20T14:55:48.937Z,93.10
2022-08-20T14:58:16.825Z,92.40
2022-08-20T15:00:43.479Z,92.10
2022-08-20T15:03:10.124Z,92.20
2022-08-20T15:05:39.673Z,91.80
2022-08-20T15:08:06.690Z,92.30
2022-08-20T15:10:34.097Z,91.80
2022-08-20T15:13:00.797Z,92.70
2022-08-20T15:15:27.432Z,92.90
2022-08-20T15:17:54.943Z,92.90
2022-08-20T15:20:21.551Z,93.60
2022-08-20T15:22:48.171Z,92.90
2022-08-20T15:25:14.796Z,93.10
2022-08-20T15:27:41.827Z,93.50
2022-08-20T15:30:08.402Z,92.70
2022-08-20T15:32:35.047Z,93.20
2022-08-20T15:35:01.598Z,94.20
2022-08-20T15:37:28.200Z,94.50
2022-08-20T15:39:54.820Z,94.70
2022-08-20T15:42:21.391Z,94.80
2022-08-20T15:44:47.969Z,94.00
2022-08-20T15:47:14.971Z,94.70
2022-08-20T15:49:41.494Z,94.50
2022-08-20T15:52:08.060Z,93.90
2022-08-20T15:54:34.729Z,94.10
2022-08-20T15:57:01.359Z,94.30
2022-08-20T15:59:27.908Z,94.50
2022-08-20T16:01:54.578Z,94.40
2022-08-20T16:04:21.245Z,94.20
2022-08-20T16:06:47.803Z,93.60
2022-08-20T16:09:14.413Z,94.10
2022-08-20T16:11:40.964Z,93.70
2022-08-20T16:14:07.492Z,93.60
2022-08-20T16:16:34.865Z,93.50
2022-08-20T16:19:01.432Z,92.90
2022-08-20T16:21:27.988Z,93.40
2022-08-20T16:23:55.460Z,93.50
2022-08-20T16:26:22.006Z,93.40
2022-08-20T16:28:48.539Z,92.80
2022-08-20T16:31:15.279Z,92.80
2022-08-20T16:33:42.065Z,93.30
2022-08-20T16:36:08.606Z,93.90
2022-08-20T16:38:35.167Z,93.80
2022-08-20T16:41:01.779Z,94.10
2022-08-20T16:43:28.321Z,93.70
2022-08-20T16:45:54.912Z,93.60
2022-08-20T16:48:21.504Z,93.90
2022-08-20T16:50:48.050Z,93.30
2022-08-20T16:53:14.637Z,92.70
2022-08-20T16:55:41.930Z,93.20
2022-08-20T16:58:08.520Z,92.60
2022-08-20T17:00:35.799Z,92.70
2022-08-20T17:03:11.679Z,92.40
2022-08-20T17:05:38.231Z,92.80
2022-08-20T17:08:07.122Z,92.80
2022-08-20T17:10:33.861Z,92.70
2022-08-20T17:13:00.475Z,92.40
2022-08-20T17:15:27.088Z,92.70
2022-08-20T17:17:55.683Z,93.00
2022-08-20T17:20:22.238Z,93.00
2022-08-20T17:22:48.800Z,93.10
2022-08-20T17:25:15.385Z,93.50
2022-08-20T17:27:41.927Z,93.50
2022-08-20T17:30:08.475Z,93.90
2022-08-20T17:32:35.042Z,94.00
2022-08-20T17:35:01.638Z,94.50
2022-08-20T17:37:28.252Z,94.00
2022-08-20T17:39:55.121Z,93.80
2022-08-20T17:42:21.766Z,93.90
2022-08-20T17:44:52.255Z,93.70
2022-08-20T17:47:21.792Z,94.30
2022-08-20T17:49:54.073Z,94.50
2022-08-20T17:52:29.547Z,94.40
2022-08-20T17:54:56.315Z,94.70
2022-08-20T17:57:22.926Z,95.00
2022-08-20T18:00:01.194Z,95.30
2022-08-20T18:02:29.402Z,95.70
2022-08-20T18:04:55.948Z,95.70
2022-08-20T18:07:22.517Z,96.00
2022-08-20T18:09:50.112Z,96.30
2022-08-20T18:12:32.750Z,96.30
2022-08-20T18:15:00.970Z,96.40
2022-08-20T18:17:27.987Z,96.70
2022-08-20T18:19:54.527Z,96.80
2022-08-20T18:22:21.123Z,96.80
2022-08-20T18:24:48.048Z,97.00
2022-08-20T18:27:14.685Z,97.10
2022-08-20T18:29:41.250Z,97.70
2022-08-20T18:32:07.778Z,97.70
2022-08-20T18:34:35.136Z,98.00
2022-08-20T18:37:01.985Z,98.00
2022-08-20T18:39:28.540Z,98.20
2022-08-20T18:41:55.147Z,98.50
2022-08-20T18:44:21.683Z,98.80
2022-08-20T18:46:51.508Z,98.90
2022-08-20T18:49:18.300Z,99.00
2022-08-20T18:51:44.902Z,99.00
2022-08-20T18:54:11.481Z,99.20
2022-08-20T18:56:38.174Z,99.30
2022-08-20T18:59:04.767Z,99.30
2022-08-20T19:01:31.398Z,99.40
2022-08-20T19:03:58.131Z,99.50
2022-08-20T19:06:24.749Z,99.70
2022-08-20T19:08:51.504Z,99.70
2022-08-20T19:11:18.061Z,99.80
2022-08-20T19:13:46.000Z,99.80
2022-08-20T19:16:12.675Z,99.80
2022-08-20T19:18:39.244Z,99.90
2022-08-20T19:21:05.788Z,99.90
2022-08-20T19:23:42.297Z,99.90
2022-08-20T19:26:24.799Z,99.90
2022-08-20T19:28:52.282Z,99.90
2022-08-20T19:31:19.001Z,99.90
2022-08-20T19:33:46.822Z,99.90
2022-08-20T19:36:13.427Z,99.90
2022-08-20T19:38:39.965Z,99.90
2022-08-20T19:41:11.203Z,99.90
2022-08-20T19:43:38.429Z,99.90
2022-08-20T19:46:05.017Z,99.90
2022-08-20T19:48:31.550Z,99.90
2022-08-20T19:50:58.160Z,99.90
2022-08-20T19:53:30.319Z,99.90
2022-08-20T19:55:57.537Z,99.90
2022-08-20T19:58:26.684Z,99.90
2022-08-20T20:00:53.964Z,99.90
2022-08-20T20:03:21.900Z,99.90
2022-08-20T20:05:48.791Z,99.90
2022-08-20T20:08:15.829Z,99.90
2022-08-20T20:10:42.582Z,99.90
2022-08-20T20:13:09.132Z,99.90
2022-08-20T20:15:35.683Z,99.90
2022-08-20T20:18:02.252Z,99.90
2022-08-20T20:20:29.075Z,99.90
2022-08-20T20:22:55.848Z,99.90
2022-08-20T20:25:22.481Z,99.90
2022-08-20T20:27:49.043Z,99.90
2022-08-20T20:30:15.609Z,99.90
2022-08-20T20:32:42.189Z,99.90
2022-08-20T20:35:09.063Z,99.90
2022-08-20T20:37:41.536Z,99.90
2022-08-20T20:40:19.486Z,99.90
2022-08-20T20:42:47.060Z,99.90
2022-08-20T20:45:13.631Z,99.90
2022-08-20T20:47:40.143Z,99.90
2022-08-20T20:50:06.690Z,99.90
2022-08-20T20:52:33.325Z,99.90
2022-08-20T20:54:59.859Z,99.90
2022-08-20T20:57:38.488Z,99.90
2022-08-20T21:00:05.823Z,99.90
2022-08-20T21:02:33.432Z,99.90
2022-08-20T21:05:00.050Z,99.90
2022-08-20T21:07:26.621Z,99.90
2022-08-20T21:09:53.382Z,99.90
2022-08-20T21:12:20.273Z,99.90
2022-08-20T21:14:46.853Z,99.90
2022-08-20T21:17:13.435Z,99.90
2022-08-20T21:19:43.841Z,99.90
2022-08-20T21:22:11.958Z,99.90
2022-08-20T21:24:38.496Z,99.90
2022-08-20T21:27:05.082Z,99.90
2022-08-20T21:29:32.626Z,99.90
2022-08-20T21:31:59.572Z,99.90
2022-08-20T21:34:26.120Z,99.90
2022-08-20T21:36:53.083Z,99.90
2022-08-20T21:39:20.759Z,99.90
2022-08-20T21:41:47.296Z,99.90
2022-08-20T21:44:13.832Z,99.90
2022-08-20T21:46:42.003Z,99.90
2022-08-20T21:49:08.578Z,99.90
2022-08-20T21:51:35.937Z,99.90
2022-08-20T21:54:02.583Z,99.90
2022-08-20T21:56:29.208Z,99.90
2022-08-20T21:58:58.714Z,99.90
2022-08-20T22:01:25.329Z,99.90
2022-08-20T22:03:52.059Z,99.90
2022-08-20T22:06:18.692Z,99.90
2022-08-20T22:08:45.277Z,99.90
2022-08-20T22:11:11.841Z,99.90
2022-08-20T22:13:38.396Z,99.90
2022-08-20T22:16:04.970Z,99.90
2022-08-20T22:18:31.521Z,99.90
2022-08-20T22:20:58.233Z,99.90
2022-08-20T22:23:24.797Z,99.90
2022-08-20T22:25:51.354Z,99.90
2022-08-20T22:28:17.917Z,99.90
2022-08-20T22:30:44.490Z,99.90
2022-08-20T22:33:11.104Z,99.90
2022-08-20T22:35:37.619Z,99.90
2022-08-20T22:38:04.228Z,99.90
2022-08-20T22:40:30.763Z,99.90
2022-08-20T22:42:57.549Z,99.90
2022-08-20T22:45:24.151Z,99.90
2022-08-20T22:47:50.713Z,99.90
2022-08-20T22:50:17.263Z,99.90
2022-08-20T22:52:45.259Z,99.90
2022-08-20T22:55:11.783Z,99.90
2022-08-20T22:57:38.829Z,99.90
2022-08-20T23:00:05.367Z,99.90
2022-08-20T23:02:31.995Z,99.90
2022-08-20T23:04:58.526Z,99.90
2022-08-20T23:07:25.103Z,99.90
2022-08-20T23:09:51.662Z,99.90
2022-08-20T23:12:18.277Z,99.90
2022-08-20T23:14:44.902Z,99.90
2022-08-20T23:17:13.642Z,99.90
2022-08-20T23:19:40.505Z,99.90
2022-08-20T23:22:07.123Z,99.90
2022-08-20T23:24:33.664Z,99.90
2022-08-20T23:27:00.231Z,99.90
2022-08-20T23:29:26.826Z,99.90
2022-08-20T23:31:53.368Z,99.90
2022-08-20T23:34:19.906Z,99.90
2022-08-20T23:36:46.435Z,99.90
2022-08-20T23:39:13.122Z,99.90
2022-08-20T23:41:43.074Z,99.90
2022-08-20T23:44:26.196Z,99.90
2022-08-20T23:46:54.658Z,99.90
2022-08-20T23:49:21.314Z,99.90
2022-08-20T23:51:48.307Z,99.90
2022-08-20T23:54:14.972Z,99.90
2022-08-20T23:56:41.539Z,99.90
2022-08-20T23:59:08.121Z,99.90
